sensor_id;sensor_type;location;lat;lon;timestamp;P1;durP1;ratioP1;P2;durP2;ratioP2
11287;SDS011;5700;50.996;7.044;2023-04-08T00:00:53;33.88;;;17.20;;
11287;SDS011;5700;50.996;7.044;2023-04-08T00:03:54;30.23;;;15.20;;
11287;SDS011;5700;50.996;7.044;2023-04-08T00:06:57;39.63;;;17.77;;
11287;SDS011;5700;50.996;7.044;2023-04-08T00:09:58;37.75;;;18.10;;
11287;SDS011;5700;50.996;7.044;2023-04-08T00:13:00;32.58;;;14.23;;
11287;SDS011;5700;50.996;7.044;2023-04-08T00:16:01;41.40;;;18.25;;
11287;SDS011;5700;50.996;7.044;2023-04-08T00:19:03;32.38;;;15.93;;
11287;SDS011;5700;50.996;7.044;2023-04-08T00:22:06;41.45;;;18.75;;
11287;SDS011;5700;50.996;7.044;2023-04-08T00:25:08;41.88;;;17.58;;
11287;SDS011;5700;50.996;7.044;2023-04-08T00:28:09;30.05;;;12.27;;
11287;SDS011;5700;50.996;7.044;2023-04-08T00:31:11;36.92;;;16.65;;
11287;SDS011;5700;50.996;7.044;2023-04-08T00:34:12;33.70;;;17.27;;
11287;SDS011;5700;50.996;7.044;2023-04-08T00:37:15;37.45;;;17.15;;
11287;SDS011;5700;50.996;7.044;2023-04-08T00:40:16;35.90;;;15.93;;
11287;SDS011;5700;50.996;7.044;2023-04-08T00:43:18;31.08;;;10.65;;
11287;SDS011;5700;50.996;7.044;2023-04-08T00:46:20;31.95;;;12.32;;
11287;SDS011;5700;50.996;7.044;2023-04-08T00:49:21;32.35;;;15.75;;
11287;SDS011;5700;50.996;7.044;2023-04-08T00:52:24;42.53;;;18.95;;
11287;SDS011;5700;50.996;7.044;2023-04-08T00:55:25;36.15;;;16.85;;
11287;SDS011;5700;50.996;7.044;2023-04-08T00:58:27;33.63;;;15.98;;
11287;SDS011;5700;50.996;7.044;2023-04-08T01:01:32;42.55;;;18.58;;
11287;SDS011;5700;50.996;7.044;2023-04-08T01:04:38;43.28;;;20.05;;
11287;SDS011;5700;50.996;7.044;2023-04-08T01:07:45;30.55;;;14.40;;
11287;SDS011;5700;50.996;7.044;2023-04-08T01:10:48;30.58;;;13.48;;
11287;SDS011;5700;50.996;7.044;2023-04-08T01:13:51;35.88;;;17.38;;
11287;SDS011;5700;50.996;7.044;2023-04-08T01:16:54;34.08;;;18.48;;
11287;SDS011;5700;50.996;7.044;2023-04-08T01:19:57;40.03;;;18.98;;
11287;SDS011;5700;50.996;7.044;2023-04-08T01:23:04;40.25;;;17.90;;
11287;SDS011;5700;50.996;7.044;2023-04-08T01:26:12;44.35;;;21.33;;
11287;SDS011;5700;50.996;7.044;2023-04-08T01:29:13;38.50;;;18.73;;
11287;SDS011;5700;50.996;7.044;2023-04-08T01:32:16;44.47;;;18.90;;
11287;SDS011;5700;50.996;7.044;2023-04-08T01:35:18;35.88;;;18.20;;
11287;SDS011;5700;50.996;7.044;2023-04-08T01:38:20;33.35;;;16.38;;
11287;SDS011;5700;50.996;7.044;2023-04-08T01:41:24;31.92;;;16.23;;
11287;SDS011;5700;50.996;7.044;2023-04-08T01:44:26;31.20;;;16.25;;
11287;SDS011;5700;50.996;7.044;2023-04-08T01:47:28;39.55;;;18.23;;
11287;SDS011;5700;50.996;7.044;2023-04-08T01:50:30;29.85;;;15.93;;
11287;SDS011;5700;50.996;7.044;2023-04-08T01:53:31;37.78;;;18.50;;
11287;SDS011;5700;50.996;7.044;2023-04-08T01:56:35;32.13;;;15.93;;
11287;SDS011;5700;50.996;7.044;2023-04-08T01:59:38;34.08;;;16.08;;
11287;SDS011;5700;50.996;7.044;2023-04-08T02:02:41;36.05;;;16.13;;
11287;SDS011;5700;50.996;7.044;2023-04-08T02:05:43;35.00;;;16.55;;
11287;SDS011;5700;50.996;7.044;2023-04-08T02:08:44;35.15;;;16.10;;
11287;SDS011;5700;50.996;7.044;2023-04-08T02:11:47;35.63;;;16.00;;
11287;SDS011;5700;50.996;7.044;2023-04-08T02:14:48;30.52;;;11.40;;
11287;SDS011;5700;50.996;7.044;2023-04-08T02:17:51;28.80;;;15.55;;
11287;SDS011;5700;50.996;7.044;2023-04-08T02:20:56;34.88;;;17.60;;
11287;SDS011;5700;50.996;7.044;2023-04-08T02:24:00;39.70;;;19.00;;
11287;SDS011;5700;50.996;7.044;2023-04-08T02:27:06;35.38;;;16.58;;
11287;SDS011;5700;50.996;7.044;2023-04-08T02:30:09;37.63;;;17.55;;
11287;SDS011;5700;50.996;7.044;2023-04-08T02:33:12;38.85;;;17.23;;
11287;SDS011;5700;50.996;7.044;2023-04-08T02:36:13;34.75;;;17.35;;
11287;SDS011;5700;50.996;7.044;2023-04-08T02:39:15;33.55;;;14.82;;
11287;SDS011;5700;50.996;7.044;2023-04-08T02:42:18;30.92;;;14.50;;
11287;SDS011;5700;50.996;7.044;2023-04-08T02:45:20;35.20;;;15.95;;
11287;SDS011;5700;50.996;7.044;2023-04-08T02:48:21;28.92;;;14.80;;
11287;SDS011;5700;50.996;7.044;2023-04-08T02:51:23;34.00;;;15.77;;
11287;SDS011;5700;50.996;7.044;2023-04-08T02:54:25;26.40;;;10.80;;
11287;SDS011;5700;50.996;7.044;2023-04-08T02:57:28;25.65;;;8.48;;
11287;SDS011;5700;50.996;7.044;2023-04-08T03:00:29;34.50;;;16.60;;
11287;SDS011;5700;50.996;7.044;2023-04-08T03:03:31;45.25;;;17.70;;
11287;SDS011;5700;50.996;7.044;2023-04-08T03:06:32;34.20;;;15.77;;
11287;SDS011;5700;50.996;7.044;2023-04-08T03:09:33;35.25;;;16.20;;
11287;SDS011;5700;50.996;7.044;2023-04-08T03:12:36;42.45;;;17.00;;
11287;SDS011;5700;50.996;7.044;2023-04-08T03:15:37;46.20;;;17.80;;
11287;SDS011;5700;50.996;7.044;2023-04-08T03:18:39;37.42;;;17.48;;
11287;SDS011;5700;50.996;7.044;2023-04-08T03:21:40;43.35;;;17.77;;
11287;SDS011;5700;50.996;7.044;2023-04-08T03:24:42;33.67;;;16.25;;
11287;SDS011;5700;50.996;7.044;2023-04-08T03:27:44;32.50;;;15.13;;
11287;SDS011;5700;50.996;7.044;2023-04-08T03:30:46;32.17;;;16.05;;
11287;SDS011;5700;50.996;7.044;2023-04-08T03:33:47;34.05;;;16.73;;
11287;SDS011;5700;50.996;7.044;2023-04-08T03:36:48;36.67;;;17.30;;
11287;SDS011;5700;50.996;7.044;2023-04-08T03:39:50;32.83;;;15.90;;
11287;SDS011;5700;50.996;7.044;2023-04-08T03:42:53;22.23;;;10.48;;
11287;SDS011;5700;50.996;7.044;2023-04-08T03:45:54;31.50;;;14.73;;
11287;SDS011;5700;50.996;7.044;2023-04-08T03:48:55;32.17;;;15.60;;
11287;SDS011;5700;50.996;7.044;2023-04-08T03:51:57;37.25;;;15.90;;
11287;SDS011;5700;50.996;7.044;2023-04-08T03:54:58;31.23;;;15.52;;
11287;SDS011;5700;50.996;7.044;2023-04-08T03:58:01;28.92;;;15.30;;
11287;SDS011;5700;50.996;7.044;2023-04-08T04:01:02;30.70;;;15.10;;
11287;SDS011;5700;50.996;7.044;2023-04-08T04:04:04;32.17;;;14.45;;
11287;SDS011;5700;50.996;7.044;2023-04-08T04:07:05;30.33;;;13.77;;
11287;SDS011;5700;50.996;7.044;2023-04-08T04:10:07;25.42;;;13.15;;
11287;SDS011;5700;50.996;7.044;2023-04-08T04:13:11;24.88;;;11.98;;
11287;SDS011;5700;50.996;7.044;2023-04-08T04:16:12;33.78;;;15.23;;
11287;SDS011;5700;50.996;7.044;2023-04-08T04:19:13;40.95;;;15.32;;
11287;SDS011;5700;50.996;7.044;2023-04-08T04:22:16;35.33;;;14.88;;
11287;SDS011;5700;50.996;7.044;2023-04-08T04:25:18;28.10;;;9.93;;
11287;SDS011;5700;50.996;7.044;2023-04-08T04:28:20;36.10;;;14.40;;
11287;SDS011;5700;50.996;7.044;2023-04-08T04:31:22;30.00;;;12.68;;
11287;SDS011;5700;50.996;7.044;2023-04-08T04:34:25;31.85;;;14.45;;
11287;SDS011;5700;50.996;7.044;2023-04-08T04:37:26;30.05;;;13.60;;
11287;SDS011;5700;50.996;7.044;2023-04-08T04:40:28;29.95;;;12.18;;
11287;SDS011;5700;50.996;7.044;2023-04-08T04:43:30;36.97;;;15.70;;
11287;SDS011;5700;50.996;7.044;2023-04-08T04:46:32;44.47;;;17.33;;
11287;SDS011;5700;50.996;7.044;2023-04-08T04:49:35;35.50;;;14.77;;
11287;SDS011;5700;50.996;7.044;2023-04-08T04:52:37;36.30;;;14.13;;
11287;SDS011;5700;50.996;7.044;2023-04-08T04:55:38;38.67;;;15.07;;
11287;SDS011;5700;50.996;7.044;2023-04-08T04:58:41;37.50;;;14.95;;
11287;SDS011;5700;50.996;7.044;2023-04-08T05:01:42;49.17;;;16.10;;
11287;SDS011;5700;50.996;7.044;2023-04-08T05:04:44;42.13;;;15.25;;
11287;SDS011;5700;50.996;7.044;2023-04-08T05:07:45;40.35;;;15.90;;
11287;SDS011;5700;50.996;7.044;2023-04-08T05:10:47;39.08;;;14.68;;
11287;SDS011;5700;50.996;7.044;2023-04-08T05:13:50;53.75;;;19.08;;
11287;SDS011;5700;50.996;7.044;2023-04-08T05:16:51;49.05;;;17.92;;
11287;SDS011;5700;50.996;7.044;2023-04-08T05:19:53;40.22;;;15.10;;
11287;SDS011;5700;50.996;7.044;2023-04-08T05:22:54;33.22;;;13.57;;
11287;SDS011;5700;50.996;7.044;2023-04-08T05:25:56;43.25;;;14.80;;
11287;SDS011;5700;50.996;7.044;2023-04-08T05:28:58;39.88;;;15.65;;
11287;SDS011;5700;50.996;7.044;2023-04-08T05:32:00;47.85;;;17.73;;
11287;SDS011;5700;50.996;7.044;2023-04-08T05:35:01;37.97;;;15.65;;
11287;SDS011;5700;50.996;7.044;2023-04-08T05:38:03;37.40;;;14.30;;
11287;SDS011;5700;50.996;7.044;2023-04-08T05:41:05;47.58;;;16.95;;
11287;SDS011;5700;50.996;7.044;2023-04-08T05:44:08;56.03;;;18.85;;
11287;SDS011;5700;50.996;7.044;2023-04-08T05:47:09;42.92;;;16.10;;
11287;SDS011;5700;50.996;7.044;2023-04-08T05:50:11;38.58;;;16.05;;
11287;SDS011;5700;50.996;7.044;2023-04-08T05:53:12;45.67;;;17.50;;
11287;SDS011;5700;50.996;7.044;2023-04-08T05:56:14;46.08;;;17.45;;
11287;SDS011;5700;50.996;7.044;2023-04-08T05:59:16;47.10;;;16.30;;
11287;SDS011;5700;50.996;7.044;2023-04-08T06:02:18;44.15;;;17.88;;
11287;SDS011;5700;50.996;7.044;2023-04-08T06:05:19;42.70;;;16.42;;
11287;SDS011;5700;50.996;7.044;2023-04-08T06:08:21;51.03;;;18.00;;
11287;SDS011;5700;50.996;7.044;2023-04-08T06:11:22;43.05;;;16.83;;
11287;SDS011;5700;50.996;7.044;2023-04-08T06:14:25;49.20;;;18.10;;
11287;SDS011;5700;50.996;7.044;2023-04-08T06:17:27;52.30;;;18.33;;
11287;SDS011;5700;50.996;7.044;2023-04-08T06:20:28;49.92;;;18.02;;
11287;SDS011;5700;50.996;7.044;2023-04-08T06:23:30;49.00;;;19.27;;
11287;SDS011;5700;50.996;7.044;2023-04-08T06:26:31;50.42;;;18.77;;
11287;SDS011;5700;50.996;7.044;2023-04-08T06:29:34;50.72;;;18.70;;
11287;SDS011;5700;50.996;7.044;2023-04-08T06:32:35;49.95;;;17.67;;
11287;SDS011;5700;50.996;7.044;2023-04-08T06:35:37;43.22;;;17.05;;
11287;SDS011;5700;50.996;7.044;2023-04-08T06:38:38;40.92;;;16.10;;
11287;SDS011;5700;50.996;7.044;2023-04-08T06:41:40;48.90;;;18.98;;
11287;SDS011;5700;50.996;7.044;2023-04-08T06:44:42;46.22;;;17.58;;
11287;SDS011;5700;50.996;7.044;2023-04-08T06:47:44;46.67;;;18.08;;
11287;SDS011;5700;50.996;7.044;2023-04-08T06:50:45;45.25;;;17.08;;
11287;SDS011;5700;50.996;7.044;2023-04-08T06:53:46;42.63;;;17.17;;
11287;SDS011;5700;50.996;7.044;2023-04-08T06:56:48;47.30;;;19.45;;
11287;SDS011;5700;50.996;7.044;2023-04-08T06:59:50;45.05;;;18.77;;
11287;SDS011;5700;50.996;7.044;2023-04-08T07:02:53;39.25;;;16.75;;
11287;SDS011;5700;50.996;7.044;2023-04-08T07:05:54;41.22;;;15.05;;
11287;SDS011;5700;50.996;7.044;2023-04-08T07:08:55;34.97;;;12.88;;
11287;SDS011;5700;50.996;7.044;2023-04-08T07:11:57;36.50;;;13.68;;
11287;SDS011;5700;50.996;7.044;2023-04-08T07:15:00;31.55;;;13.80;;
11287;SDS011;5700;50.996;7.044;2023-04-08T07:18:01;33.10;;;12.88;;
11287;SDS011;5700;50.996;7.044;2023-04-08T07:21:03;35.83;;;14.70;;
11287;SDS011;5700;50.996;7.044;2023-04-08T07:24:05;32.22;;;13.30;;
11287;SDS011;5700;50.996;7.044;2023-04-08T07:27:07;31.75;;;12.68;;
11287;SDS011;5700;50.996;7.044;2023-04-08T07:30:09;37.17;;;14.63;;
11287;SDS011;5700;50.996;7.044;2023-04-08T07:33:11;38.58;;;14.02;;
11287;SDS011;5700;50.996;7.044;2023-04-08T07:36:13;38.15;;;15.13;;
11287;SDS011;5700;50.996;7.044;2023-04-08T07:39:17;36.40;;;13.82;;
11287;SDS011;5700;50.996;7.044;2023-04-08T07:42:18;34.28;;;15.07;;
11287;SDS011;5700;50.996;7.044;2023-04-08T07:45:21;37.25;;;15.50;;
11287;SDS011;5700;50.996;7.044;2023-04-08T07:48:22;41.58;;;15.68;;
11287;SDS011;5700;50.996;7.044;2023-04-08T07:51:24;36.85;;;16.27;;
11287;SDS011;5700;50.996;7.044;2023-04-08T07:54:26;36.42;;;15.27;;
11287;SDS011;5700;50.996;7.044;2023-04-08T07:57:28;37.08;;;14.63;;
11287;SDS011;5700;50.996;7.044;2023-04-08T08:00:31;38.92;;;14.60;;
11287;SDS011;5700;50.996;7.044;2023-04-08T08:03:32;45.38;;;15.27;;
11287;SDS011;5700;50.996;7.044;2023-04-08T08:06:34;34.97;;;17.33;;
11287;SDS011;5700;50.996;7.044;2023-04-08T08:09:35;32.38;;;15.55;;
11287;SDS011;5700;50.996;7.044;2023-04-08T08:12:37;35.83;;;16.48;;
11287;SDS011;5700;50.996;7.044;2023-04-08T08:15:40;35.97;;;15.45;;
11287;SDS011;5700;50.996;7.044;2023-04-08T08:18:41;35.92;;;15.60;;
11287;SDS011;5700;50.996;7.044;2023-04-08T08:21:43;33.50;;;15.60;;
11287;SDS011;5700;50.996;7.044;2023-04-08T08:24:44;37.85;;;17.17;;
11287;SDS011;5700;50.996;7.044;2023-04-08T08:27:46;38.35;;;17.23;;
11287;SDS011;5700;50.996;7.044;2023-04-08T08:30:49;38.88;;;18.02;;
11287;SDS011;5700;50.996;7.044;2023-04-08T08:33:50;36.22;;;16.63;;
11287;SDS011;5700;50.996;7.044;2023-04-08T08:36:52;36.45;;;16.77;;
11287;SDS011;5700;50.996;7.044;2023-04-08T08:39:58;35.58;;;16.65;;
11287;SDS011;5700;50.996;7.044;2023-04-08T08:43:00;39.13;;;17.27;;
11287;SDS011;5700;50.996;7.044;2023-04-08T08:46:03;35.85;;;15.20;;
11287;SDS011;5700;50.996;7.044;2023-04-08T08:49:04;33.53;;;15.45;;
11287;SDS011;5700;50.996;7.044;2023-04-08T08:52:06;34.58;;;15.73;;
11287;SDS011;5700;50.996;7.044;2023-04-08T08:55:07;27.67;;;11.75;;
11287;SDS011;5700;50.996;7.044;2023-04-08T08:58:09;23.40;;;10.10;;
11287;SDS011;5700;50.996;7.044;2023-04-08T09:04:32;21.45;;;9.68;;
11287;SDS011;5700;50.996;7.044;2023-04-08T09:07:34;26.02;;;10.10;;
11287;SDS011;5700;50.996;7.044;2023-04-08T09:10:36;25.65;;;10.85;;
11287;SDS011;5700;50.996;7.044;2023-04-08T09:13:38;25.05;;;10.05;;
11287;SDS011;5700;50.996;7.044;2023-04-08T09:16:42;28.95;;;12.07;;
11287;SDS011;5700;50.996;7.044;2023-04-08T09:23:10;30.83;;;11.82;;
11287;SDS011;5700;50.996;7.044;2023-04-08T09:26:12;30.83;;;12.77;;
11287;SDS011;5700;50.996;7.044;2023-04-08T09:29:14;31.00;;;13.35;;
11287;SDS011;5700;50.996;7.044;2023-04-08T09:32:17;33.30;;;13.45;;
11287;SDS011;5700;50.996;7.044;2023-04-08T09:35:18;33.55;;;12.98;;
11287;SDS011;5700;50.996;7.044;2023-04-08T09:38:20;38.13;;;13.50;;
11287;SDS011;5700;50.996;7.044;2023-04-08T09:41:21;30.05;;;13.85;;
11287;SDS011;5700;50.996;7.044;2023-04-08T09:44:23;38.47;;;15.63;;
11287;SDS011;5700;50.996;7.044;2023-04-08T09:47:28;49.42;;;22.75;;
11287;SDS011;5700;50.996;7.044;2023-04-08T09:50:31;50.42;;;24.35;;
11287;SDS011;5700;50.996;7.044;2023-04-08T09:53:34;48.85;;;23.15;;
11287;SDS011;5700;50.996;7.044;2023-04-08T09:56:40;53.20;;;24.27;;
11287;SDS011;5700;50.996;7.044;2023-04-08T09:59:44;49.28;;;23.83;;
11287;SDS011;5700;50.996;7.044;2023-04-08T10:02:53;49.90;;;22.60;;
11287;SDS011;5700;50.996;7.044;2023-04-08T10:05:57;47.13;;;22.90;;
11287;SDS011;5700;50.996;7.044;2023-04-08T10:08:59;41.92;;;21.02;;
11287;SDS011;5700;50.996;7.044;2023-04-08T10:12:02;43.70;;;21.27;;
11287;SDS011;5700;50.996;7.044;2023-04-08T10:18:31;48.45;;;21.83;;
11287;SDS011;5700;50.996;7.044;2023-04-08T10:21:33;37.85;;;19.70;;
11287;SDS011;5700;50.996;7.044;2023-04-08T10:24:36;38.33;;;18.95;;
11287;SDS011;5700;50.996;7.044;2023-04-08T10:27:37;41.65;;;21.10;;
11287;SDS011;5700;50.996;7.044;2023-04-08T10:30:41;36.83;;;19.30;;
11287;SDS011;5700;50.996;7.044;2023-04-08T10:33:44;40.22;;;19.58;;
11287;SDS011;5700;50.996;7.044;2023-04-08T10:36:46;34.38;;;18.13;;
11287;SDS011;5700;50.996;7.044;2023-04-08T10:39:48;38.15;;;19.83;;
11287;SDS011;5700;50.996;7.044;2023-04-08T10:42:53;38.75;;;18.25;;
11287;SDS011;5700;50.996;7.044;2023-04-08T10:45:54;34.28;;;17.67;;
11287;SDS011;5700;50.996;7.044;2023-04-08T10:48:59;35.13;;;18.67;;
11287;SDS011;5700;50.996;7.044;2023-04-08T10:52:05;39.38;;;19.63;;
11287;SDS011;5700;50.996;7.044;2023-04-08T10:55:08;41.28;;;19.25;;
11287;SDS011;5700;50.996;7.044;2023-04-08T10:58:10;34.60;;;17.42;;
11287;SDS011;5700;50.996;7.044;2023-04-08T11:01:11;37.92;;;17.90;;
11287;SDS011;5700;50.996;7.044;2023-04-08T11:04:15;29.67;;;16.48;;
11287;SDS011;5700;50.996;7.044;2023-04-08T11:07:19;37.60;;;17.77;;
11287;SDS011;5700;50.996;7.044;2023-04-08T11:10:20;33.15;;;16.83;;
11287;SDS011;5700;50.996;7.044;2023-04-08T11:13:21;31.33;;;16.95;;
11287;SDS011;5700;50.996;7.044;2023-04-08T11:16:23;26.92;;;14.63;;
11287;SDS011;5700;50.996;7.044;2023-04-08T11:19:28;28.58;;;15.38;;
11287;SDS011;5700;50.996;7.044;2023-04-08T11:22:29;31.45;;;16.15;;
11287;SDS011;5700;50.996;7.044;2023-04-08T11:25:32;26.23;;;14.82;;
11287;SDS011;5700;50.996;7.044;2023-04-08T11:28:34;23.90;;;14.10;;
11287;SDS011;5700;50.996;7.044;2023-04-08T11:31:35;31.17;;;14.88;;
11287;SDS011;5700;50.996;7.044;2023-04-08T11:34:39;27.17;;;14.65;;
11287;SDS011;5700;50.996;7.044;2023-04-08T11:37:41;25.05;;;13.90;;
11287;SDS011;5700;50.996;7.044;2023-04-08T11:40:51;24.63;;;12.15;;
11287;SDS011;5700;50.996;7.044;2023-04-08T11:43:53;21.58;;;12.70;;
11287;SDS011;5700;50.996;7.044;2023-04-08T11:46:55;22.35;;;12.57;;
11287;SDS011;5700;50.996;7.044;2023-04-08T11:49:59;20.17;;;12.43;;
11287;SDS011;5700;50.996;7.044;2023-04-08T11:53:01;20.55;;;11.60;;
11287;SDS011;5700;50.996;7.044;2023-04-08T11:59:20;21.58;;;12.32;;
11287;SDS011;5700;50.996;7.044;2023-04-08T12:02:21;22.23;;;12.70;;
11287;SDS011;5700;50.996;7.044;2023-04-08T12:05:24;21.25;;;11.93;;
11287;SDS011;5700;50.996;7.044;2023-04-08T12:08:25;23.05;;;13.07;;
11287;SDS011;5700;50.996;7.044;2023-04-08T12:11:27;24.63;;;12.75;;
11287;SDS011;5700;50.996;7.044;2023-04-08T12:14:28;22.48;;;12.32;;
11287;SDS011;5700;50.996;7.044;2023-04-08T12:17:30;19.20;;;11.20;;
11287;SDS011;5700;50.996;7.044;2023-04-08T12:20:32;19.33;;;11.02;;
11287;SDS011;5700;50.996;7.044;2023-04-08T12:23:34;21.38;;;12.23;;
11287;SDS011;5700;50.996;7.044;2023-04-08T12:26:35;20.17;;;12.00;;
11287;SDS011;5700;50.996;7.044;2023-04-08T12:29:37;22.15;;;12.85;;
11287;SDS011;5700;50.996;7.044;2023-04-08T12:32:39;23.10;;;13.18;;
11287;SDS011;5700;50.996;7.044;2023-04-08T12:35:43;25.23;;;12.70;;
11287;SDS011;5700;50.996;7.044;2023-04-08T12:38:44;22.55;;;12.15;;
11287;SDS011;5700;50.996;7.044;2023-04-08T12:41:46;22.95;;;12.35;;
11287;SDS011;5700;50.996;7.044;2023-04-08T12:44:47;25.77;;;13.68;;
11287;SDS011;5700;50.996;7.044;2023-04-08T12:47:49;24.67;;;12.45;;
11287;SDS011;5700;50.996;7.044;2023-04-08T12:50:52;23.05;;;11.85;;
11287;SDS011;5700;50.996;7.044;2023-04-08T12:53:53;23.90;;;12.32;;
11287;SDS011;5700;50.996;7.044;2023-04-08T12:56:55;18.27;;;9.82;;
11287;SDS011;5700;50.996;7.044;2023-04-08T12:59:56;18.52;;;9.52;;
11287;SDS011;5700;50.996;7.044;2023-04-08T13:02:57;16.17;;;9.07;;
11287;SDS011;5700;50.996;7.044;2023-04-08T13:06:01;13.75;;;8.23;;
11287;SDS011;5700;50.996;7.044;2023-04-08T13:09:02;13.65;;;7.65;;
11287;SDS011;5700;50.996;7.044;2023-04-08T13:12:03;12.05;;;7.28;;
11287;SDS011;5700;50.996;7.044;2023-04-08T13:15:05;11.05;;;6.70;;
11287;SDS011;5700;50.996;7.044;2023-04-08T13:18:08;10.60;;;5.43;;
11287;SDS011;5700;50.996;7.044;2023-04-08T13:21:11;14.27;;;7.18;;
11287;SDS011;5700;50.996;7.044;2023-04-08T13:24:12;13.05;;;6.75;;
11287;SDS011;5700;50.996;7.044;2023-04-08T13:27:14;12.43;;;6.22;;
11287;SDS011;5700;50.996;7.044;2023-04-08T13:30:15;10.93;;;5.50;;
11287;SDS011;5700;50.996;7.044;2023-04-08T13:33:17;10.82;;;5.53;;
11287;SDS011;5700;50.996;7.044;2023-04-08T13:36:19;10.57;;;5.63;;
11287;SDS011;5700;50.996;7.044;2023-04-08T13:39:21;9.10;;;4.65;;
11287;SDS011;5700;50.996;7.044;2023-04-08T13:42:22;9.55;;;5.47;;
11287;SDS011;5700;50.996;7.044;2023-04-08T13:45:24;8.57;;;5.47;;
11287;SDS011;5700;50.996;7.044;2023-04-08T13:48:25;9.02;;;4.88;;
11287;SDS011;5700;50.996;7.044;2023-04-08T13:51:28;10.23;;;5.13;;
11287;SDS011;5700;50.996;7.044;2023-04-08T13:54:30;9.73;;;5.25;;
11287;SDS011;5700;50.996;7.044;2023-04-08T13:57:31;7.18;;;4.40;;
11287;SDS011;5700;50.996;7.044;2023-04-08T14:00:34;9.60;;;4.75;;
11287;SDS011;5700;50.996;7.044;2023-04-08T14:03:35;8.52;;;4.00;;
11287;SDS011;5700;50.996;7.044;2023-04-08T14:06:38;7.82;;;4.30;;
11287;SDS011;5700;50.996;7.044;2023-04-08T14:09:39;9.25;;;5.10;;
11287;SDS011;5700;50.996;7.044;2023-04-08T14:12:41;9.40;;;4.38;;
11287;SDS011;5700;50.996;7.044;2023-04-08T14:15:42;8.07;;;4.80;;
11287;SDS011;5700;50.996;7.044;2023-04-08T14:18:43;9.10;;;4.55;;
11287;SDS011;5700;50.996;7.044;2023-04-08T14:21:46;7.55;;;4.20;;
11287;SDS011;5700;50.996;7.044;2023-04-08T14:24:48;6.70;;;3.80;;
11287;SDS011;5700;50.996;7.044;2023-04-08T14:27:49;7.50;;;3.97;;
11287;SDS011;5700;50.996;7.044;2023-04-08T14:30:51;8.68;;;3.92;;
11287;SDS011;5700;50.996;7.044;2023-04-08T14:33:52;9.35;;;4.50;;
11287;SDS011;5700;50.996;7.044;2023-04-08T14:36:57;7.55;;;3.60;;
11287;SDS011;5700;50.996;7.044;2023-04-08T14:39:58;7.03;;;4.03;;
11287;SDS011;5700;50.996;7.044;2023-04-08T14:42:59;7.47;;;4.28;;
11287;SDS011;5700;50.996;7.044;2023-04-08T14:46:01;8.35;;;5.07;;
11287;SDS011;5700;50.996;7.044;2023-04-08T14:49:02;6.53;;;4.03;;
11287;SDS011;5700;50.996;7.044;2023-04-08T14:52:05;9.00;;;4.43;;
11287;SDS011;5700;50.996;7.044;2023-04-08T14:55:07;7.97;;;4.47;;
11287;SDS011;5700;50.996;7.044;2023-04-08T14:58:09;6.78;;;4.00;;
11287;SDS011;5700;50.996;7.044;2023-04-08T15:01:10;10.43;;;4.32;;
11287;SDS011;5700;50.996;7.044;2023-04-08T15:04:12;9.25;;;5.03;;
11287;SDS011;5700;50.996;7.044;2023-04-08T15:07:14;10.07;;;4.35;;
11287;SDS011;5700;50.996;7.044;2023-04-08T15:10:16;7.88;;;3.90;;
11287;SDS011;5700;50.996;7.044;2023-04-08T15:13:17;8.95;;;4.60;;
11287;SDS011;5700;50.996;7.044;2023-04-08T15:16:19;6.78;;;4.03;;
11287;SDS011;5700;50.996;7.044;2023-04-08T15:19:20;8.55;;;4.15;;
11287;SDS011;5700;50.996;7.044;2023-04-08T15:22:24;7.78;;;4.47;;
11287;SDS011;5700;50.996;7.044;2023-04-08T15:25:26;8.70;;;4.75;;
11287;SDS011;5700;50.996;7.044;2023-04-08T15:28:27;7.85;;;5.22;;
11287;SDS011;5700;50.996;7.044;2023-04-08T15:31:29;8.07;;;5.18;;
11287;SDS011;5700;50.996;7.044;2023-04-08T15:34:30;9.18;;;5.35;;
11287;SDS011;5700;50.996;7.044;2023-04-08T15:37:33;9.73;;;5.47;;
11287;SDS011;5700;50.996;7.044;2023-04-08T15:40:34;11.25;;;6.20;;
11287;SDS011;5700;50.996;7.044;2023-04-08T15:43:36;9.52;;;5.50;;
11287;SDS011;5700;50.996;7.044;2023-04-08T15:46:38;9.80;;;5.22;;
11287;SDS011;5700;50.996;7.044;2023-04-08T15:49:39;10.30;;;5.78;;
11287;SDS011;5700;50.996;7.044;2023-04-08T15:52:42;9.15;;;5.82;;
11287;SDS011;5700;50.996;7.044;2023-04-08T15:55:43;10.18;;;6.20;;
11287;SDS011;5700;50.996;7.044;2023-04-08T15:58:45;10.23;;;6.53;;
11287;SDS011;5700;50.996;7.044;2023-04-08T16:01:46;11.02;;;6.38;;
11287;SDS011;5700;50.996;7.044;2023-04-08T16:04:47;12.90;;;6.22;;
11287;SDS011;5700;50.996;7.044;2023-04-08T16:07:50;9.65;;;5.97;;
11287;SDS011;5700;50.996;7.044;2023-04-08T16:10:56;8.95;;;5.40;;
11287;SDS011;5700;50.996;7.044;2023-04-08T16:14:00;8.57;;;5.65;;
11287;SDS011;5700;50.996;7.044;2023-04-08T16:17:03;9.00;;;5.72;;
11287;SDS011;5700;50.996;7.044;2023-04-08T16:20:06;9.98;;;6.28;;
11287;SDS011;5700;50.996;7.044;2023-04-08T16:23:10;11.27;;;7.00;;
11287;SDS011;5700;50.996;7.044;2023-04-08T16:26:14;10.98;;;6.80;;
11287;SDS011;5700;50.996;7.044;2023-04-08T16:29:16;13.10;;;7.05;;
11287;SDS011;5700;50.996;7.044;2023-04-08T16:32:17;10.85;;;7.18;;
11287;SDS011;5700;50.996;7.044;2023-04-08T16:35:18;11.30;;;7.28;;
11287;SDS011;5700;50.996;7.044;2023-04-08T16:38:22;12.18;;;7.32;;
11287;SDS011;5700;50.996;7.044;2023-04-08T16:41:24;12.90;;;7.93;;
11287;SDS011;5700;50.996;7.044;2023-04-08T16:44:25;13.63;;;8.57;;
11287;SDS011;5700;50.996;7.044;2023-04-08T16:47:27;14.27;;;9.15;;
11287;SDS011;5700;50.996;7.044;2023-04-08T16:50:28;11.20;;;7.57;;
11287;SDS011;5700;50.996;7.044;2023-04-08T16:53:31;13.30;;;8.57;;
11287;SDS011;5700;50.996;7.044;2023-04-08T16:56:32;15.55;;;8.48;;
11287;SDS011;5700;50.996;7.044;2023-04-08T16:59:34;13.18;;;8.68;;
11287;SDS011;5700;50.996;7.044;2023-04-08T17:02:35;14.40;;;9.00;;
11287;SDS011;5700;50.996;7.044;2023-04-08T17:05:37;12.50;;;7.55;;
11287;SDS011;5700;50.996;7.044;2023-04-08T17:08:40;12.73;;;8.38;;
11287;SDS011;5700;50.996;7.044;2023-04-08T17:11:42;13.82;;;8.23;;
11287;SDS011;5700;50.996;7.044;2023-04-08T17:14:43;13.40;;;8.23;;
11287;SDS011;5700;50.996;7.044;2023-04-08T17:17:45;13.90;;;7.82;;
11287;SDS011;5700;50.996;7.044;2023-04-08T17:20:46;12.77;;;8.25;;
11287;SDS011;5700;50.996;7.044;2023-04-08T17:23:49;14.18;;;9.30;;
11287;SDS011;5700;50.996;7.044;2023-04-08T17:26:51;15.00;;;8.93;;
11287;SDS011;5700;50.996;7.044;2023-04-08T17:29:52;18.40;;;9.43;;
11287;SDS011;5700;50.996;7.044;2023-04-08T17:32:56;13.93;;;8.52;;
11287;SDS011;5700;50.996;7.044;2023-04-08T17:35:58;12.40;;;7.95;;
11287;SDS011;5700;50.996;7.044;2023-04-08T17:39:00;15.40;;;7.90;;
11287;SDS011;5700;50.996;7.044;2023-04-08T17:42:02;13.07;;;8.27;;
11287;SDS011;5700;50.996;7.044;2023-04-08T17:45:03;13.43;;;8.63;;
11287;SDS011;5700;50.996;7.044;2023-04-08T17:48:05;12.73;;;8.25;;
11287;SDS011;5700;50.996;7.044;2023-04-08T17:51:08;14.07;;;8.50;;
11287;SDS011;5700;50.996;7.044;2023-04-08T17:54:12;12.63;;;8.20;;
11287;SDS011;5700;50.996;7.044;2023-04-08T17:57:13;14.68;;;8.98;;
11287;SDS011;5700;50.996;7.044;2023-04-08T18:00:14;13.35;;;7.97;;
11287;SDS011;5700;50.996;7.044;2023-04-08T18:03:16;14.18;;;8.60;;
11287;SDS011;5700;50.996;7.044;2023-04-08T18:06:18;14.30;;;8.85;;
11287;SDS011;5700;50.996;7.044;2023-04-08T18:09:20;14.05;;;8.93;;
11287;SDS011;5700;50.996;7.044;2023-04-08T18:12:22;15.55;;;9.30;;
11287;SDS011;5700;50.996;7.044;2023-04-08T18:15:25;14.02;;;9.05;;
11287;SDS011;5700;50.996;7.044;2023-04-08T18:18:26;15.25;;;9.35;;
11287;SDS011;5700;50.996;7.044;2023-04-08T18:21:27;13.70;;;8.95;;